Botruc 33 — WDC3314 — position and weather

sailwx.info

Track history (hours):
 
Tides and Currents Weather Stations Pressure Air Temp Water Temp Dewpoint Dewpoint Depression Visibility Wind Speed Wind Dir Waves Ship Positions

Botruc 33

Owner: L & M Botruc, Galliano, LA. More information available from US FCC via Universal Licensing System and Coast Guard Vessel Documentation Center.

Last reported at 2018-Feb-23 04:12 UTC. Time now 2018-Feb-23 16:20 UTC.
Position N 29°38' W 092°16'.

Length 10 m; draft 3 m.

Type: Cargo ship. MMSI: 367005670.

Date/timePositionNaut miles runAvg speedWind from/ knotsBaromVisibWave heightAir tempDewpointWater temp
2018-Feb-23 04:12N 29°38' W 092°16'2 7.4
2018-Feb-23 03:58N 29°39' W 092°16'4 8.0
2018-Feb-23 03:30N 29°43' W 092°15'4 7.4
2018-Feb-23 03:00N 29°46' W 092°12'3 5.7
2018-Feb-23 02:30N 29°47' W 092°09'1 1.0
2018-Feb-23 01:58N 29°48' W 092°09'0 0.0
2018-Feb-23 01:28N 29°48' W 092°09'0 0.0
2018-Feb-23 00:58N 29°48' W 092°09'0 0.0
2018-Feb-23 00:28N 29°48' W 092°09'0 0.0
2018-Feb-22 23:58N 29°48' W 092°09'0 0.0
2018-Feb-22 23:28N 29°48' W 092°09'0 0.0
2018-Feb-22 22:58N 29°48' W 092°09'0 0.0
2018-Feb-22 22:28N 29°48' W 092°09'0 0.0
2018-Feb-22 21:55N 29°48' W 092°09'0 0.0
2018-Feb-22 21:25N 29°48' W 092°09'0 0.1
2018-Feb-22 19:48N 29°47' W 092°09'0 0.0
2018-Feb-22 11:12N 29°47' W 092°09'1 4.1
2018-Feb-22 11:00N 29°47' W 092°09'4 7.3
2018-Feb-22 10:30N 29°45' W 092°13'3 6.5
2018-Feb-22 10:00N 29°42' W 092°15'  
2018-Feb-16 04:28N 29°39' W 092°16'3 6.3
2018-Feb-16 04:00N 29°41' W 092°15'3 5.6
2018-Feb-16 03:31N 29°44' W 092°14'3 6.7
2018-Feb-16 03:01N 29°46' W 092°11'2 4.9
2018-Feb-16 02:31N 29°47' W 092°09'0 0.5
2018-Feb-16 01:59N 29°48' W 092°09'0 0.0
2018-Feb-16 01:29N 29°48' W 092°09'0 0.0
2018-Feb-16 00:59N 29°48' W 092°09'0 0.0
2018-Feb-16 00:29N 29°48' W 092°09'0 0.0
2018-Feb-15 23:47N 29°48' W 092°09'0 0.0
2018-Feb-15 23:20N 29°48' W 092°09'0 0.0
2018-Feb-15 22:56N 29°48' W 092°09'0 0.0
2018-Feb-15 22:29N 29°48' W 092°09'0 0.0
2018-Feb-15 21:59N 29°48' W 092°09'0 0.0
2018-Feb-15 21:29N 29°48' W 092°09'0 0.0
2018-Feb-15 20:59N 29°48' W 092°09'0 0.0
2018-Feb-15 20:29N 29°48' W 092°09'0 0.0
2018-Feb-15 19:59N 29°48' W 092°09'0 0.0
2018-Feb-15 19:29N 29°48' W 092°09'0 0.0
2018-Feb-15 18:59N 29°48' W 092°09'0 0.0
2018-Feb-15 18:29N 29°48' W 092°09'0 0.0
2018-Feb-15 17:59N 29°48' W 092°09'0 0.0
2018-Feb-15 17:29N 29°48' W 092°09'0 0.0
2018-Feb-15 16:59N 29°48' W 092°09'0 0.0
2018-Feb-15 16:29N 29°48' W 092°09'0 0.0
2018-Feb-15 15:59N 29°48' W 092°09'0 0.0
2018-Feb-15 15:29N 29°48' W 092°09'0 0.1
2018-Feb-15 14:59N 29°48' W 092°09'0 0.0
2018-Feb-15 14:29N 29°48' W 092°09'0 0.0
2018-Feb-15 13:59N 29°48' W 092°09'0 0.0
2018-Feb-15 13:29N 29°48' W 092°09'2 3.6
2018-Feb-15 13:00N 29°47' W 092°10'3 6.5
2018-Feb-15 12:30N 29°45' W 092°13'3 5.8
2018-Feb-15 11:59N 29°42' W 092°15'  
Track history (hours):
 
Tides and Currents Weather Stations Pressure Air Temp Water Temp Dewpoint Dewpoint Depression Visibility Wind Speed Wind Dir Waves Ship Positions

Botruc 33

Owner: L & M Botruc, Galliano, LA. More information available from US FCC via Universal Licensing System and Coast Guard Vessel Documentation Center.

Last reported at 2018-Feb-23 04:12 UTC. Time now 2018-Feb-23 16:20 UTC.
Position N 29°38' W 092°16'.

Length 10 m; draft 3 m.

Type: Cargo ship. MMSI: 367005670.

Date/timePositionNaut miles runAvg speedWind from/ knotsBaromVisibWave heightAir tempDewpointWater temp
2018-Feb-23 04:12N 29°38' W 092°16'2 7.4
2018-Feb-23 03:58N 29°39' W 092°16'4 8.0
2018-Feb-23 03:30N 29°43' W 092°15'4 7.4
2018-Feb-23 03:00N 29°46' W 092°12'3 5.7
2018-Feb-23 02:30N 29°47' W 092°09'1 1.0
2018-Feb-23 01:58N 29°48' W 092°09'0 0.0
2018-Feb-23 01:28N 29°48' W 092°09'0 0.0
2018-Feb-23 00:58N 29°48' W 092°09'0 0.0
2018-Feb-23 00:28N 29°48' W 092°09'0 0.0
2018-Feb-22 23:58N 29°48' W 092°09'0 0.0
2018-Feb-22 23:28N 29°48' W 092°09'0 0.0
2018-Feb-22 22:58N 29°48' W 092°09'0 0.0
2018-Feb-22 22:28N 29°48' W 092°09'0 0.0
2018-Feb-22 21:55N 29°48' W 092°09'0 0.0
2018-Feb-22 21:25N 29°48' W 092°09'0 0.1
2018-Feb-22 19:48N 29°47' W 092°09'0 0.0
2018-Feb-22 11:12N 29°47' W 092°09'1 4.1
2018-Feb-22 11:00N 29°47' W 092°09'4 7.3
2018-Feb-22 10:30N 29°45' W 092°13'3 6.5
2018-Feb-22 10:00N 29°42' W 092°15'  
2018-Feb-16 04:28N 29°39' W 092°16'3 6.3
2018-Feb-16 04:00N 29°41' W 092°15'3 5.6
2018-Feb-16 03:31N 29°44' W 092°14'3 6.7
2018-Feb-16 03:01N 29°46' W 092°11'2 4.9
2018-Feb-16 02:31N 29°47' W 092°09'0 0.5
2018-Feb-16 01:59N 29°48' W 092°09'0 0.0
2018-Feb-16 01:29N 29°48' W 092°09'0 0.0
2018-Feb-16 00:59N 29°48' W 092°09'0 0.0
2018-Feb-16 00:29N 29°48' W 092°09'0 0.0
2018-Feb-15 23:47N 29°48' W 092°09'0 0.0
2018-Feb-15 23:20N 29°48' W 092°09'0 0.0
2018-Feb-15 22:56N 29°48' W 092°09'0 0.0
2018-Feb-15 22:29N 29°48' W 092°09'0 0.0
2018-Feb-15 21:59N 29°48' W 092°09'0 0.0
2018-Feb-15 21:29N 29°48' W 092°09'0 0.0
2018-Feb-15 20:59N 29°48' W 092°09'0 0.0
2018-Feb-15 20:29N 29°48' W 092°09'0 0.0
2018-Feb-15 19:59N 29°48' W 092°09'0 0.0
2018-Feb-15 19:29N 29°48' W 092°09'0 0.0
2018-Feb-15 18:59N 29°48' W 092°09'0 0.0
2018-Feb-15 18:29N 29°48' W 092°09'0 0.0
2018-Feb-15 17:59N 29°48' W 092°09'0 0.0
2018-Feb-15 17:29N 29°48' W 092°09'0 0.0
2018-Feb-15 16:59N 29°48' W 092°09'0 0.0
2018-Feb-15 16:29N 29°48' W 092°09'0 0.0
2018-Feb-15 15:59N 29°48' W 092°09'0 0.0
2018-Feb-15 15:29N 29°48' W 092°09'0 0.1
2018-Feb-15 14:59N 29°48' W 092°09'0 0.0
2018-Feb-15 14:29N 29°48' W 092°09'0 0.0
2018-Feb-15 13:59N 29°48' W 092°09'0 0.0
2018-Feb-15 13:29N 29°48' W 092°09'2 3.6
2018-Feb-15 13:00N 29°47' W 092°10'3 6.5
2018-Feb-15 12:30N 29°45' W 092°13'3 5.8
2018-Feb-15 11:59N 29°42' W 092°15'  

Dump ship's entire track history